createdAt,value
2022-12-25T00:01:48.081Z,7.74
2022-12-25T00:11:49.489Z,7.75
2022-12-25T00:21:50.881Z,7.77
2022-12-25T00:31:52.338Z,7.85
2022-12-25T00:42:12.411Z,7.95
2022-12-25T00:52:13.869Z,8.11
2022-12-25T01:02:24.388Z,8.19
2022-12-25T01:12:25.966Z,8.29
2022-12-25T01:22:27.377Z,8.36
2022-12-25T01:32:28.761Z,8.45
2022-12-25T01:42:30.213Z,8.44
2022-12-25T01:52:32.269Z,8.54
2022-12-25T02:02:34.578Z,8.65
2022-12-25T02:12:37.336Z,8.72
2022-12-25T02:22:57.603Z,8.76
2022-12-25T02:33:20.438Z,8.80
2022-12-25T02:44:20.085Z,8.82
2022-12-25T02:54:48.940Z,8.92
2022-12-25T03:05:11.731Z,8.94
2022-12-25T03:15:32.620Z,9.01
2022-12-25T03:25:52.777Z,8.98
2022-12-25T03:36:17.830Z,9.01
2022-12-25T03:46:39.160Z,9.04
2022-12-25T03:57:01.156Z,9.12
2022-12-25T04:07:21.059Z,9.18
2022-12-25T04:17:40.637Z,9.16
2022-12-25T04:28:00.409Z,9.17
2022-12-25T04:38:02.004Z,9.05
2022-12-25T04:48:03.535Z,9.02
2022-12-25T04:58:04.996Z,8.76
2022-12-25T05:08:06.433Z,8.78
2022-12-25T05:18:07.952Z,8.77
2022-12-25T05:28:09.377Z,8.89
2022-12-25T05:38:10.735Z,9.00
2022-12-25T05:48:12.112Z,9.17
2022-12-25T05:58:13.885Z,9.24
2022-12-25T06:08:15.255Z,9.25
2022-12-25T06:18:16.603Z,9.34
2022-12-25T06:28:18.997Z,9.35
2022-12-25T06:38:20.349Z,9.42
2022-12-25T06:48:21.695Z,9.42
2022-12-25T06:58:23.063Z,9.34
2022-12-25T07:08:24.460Z,9.29
2022-12-25T07:18:26.792Z,9.26
2022-12-25T07:28:29.736Z,9.21
2022-12-25T07:38:31.671Z,9.28
2022-12-25T07:48:33.559Z,9.30
2022-12-25T07:58:34.977Z,9.37
2022-12-25T08:08:38.328Z,9.37
2022-12-25T08:18:39.913Z,9.48
2022-12-25T08:28:41.375Z,9.53
2022-12-25T08:38:43.053Z,9.52
2022-12-25T08:48:46.222Z,9.55
2022-12-25T08:58:47.592Z,9.53
2022-12-25T09:08:49.951Z,9.62
2022-12-25T09:18:51.879Z,9.62
2022-12-25T09:28:53.281Z,9.67
2022-12-25T09:38:54.693Z,9.79
2022-12-25T09:49:06.169Z,9.75
2022-12-25T09:59:18.437Z,9.80
2022-12-25T10:09:45.817Z,9.84
2022-12-25T10:19:49.875Z,9.91
2022-12-25T10:29:54.745Z,9.95
2022-12-25T10:39:57.251Z,10.03
2022-12-25T10:50:00.710Z,10.04
2022-12-25T11:00:05.527Z,10.10
2022-12-25T11:10:32.585Z,10.12
2022-12-25T11:20:34.134Z,10.19
2022-12-25T11:30:37.558Z,10.20
2022-12-25T11:40:46.950Z,10.22
2022-12-25T11:50:53.054Z,10.26
2022-12-25T12:00:57.227Z,10.25
2022-12-25T12:11:21.430Z,10.27
2022-12-25T12:21:30.866Z,10.27
2022-12-25T12:31:45.325Z,10.35
2022-12-25T12:41:48.911Z,10.39
2022-12-25T12:51:50.783Z,10.37
2022-12-25T13:02:34.225Z,10.42
2022-12-25T13:12:36.813Z,10.46
2022-12-25T13:22:38.274Z,10.49
2022-12-25T13:32:40.689Z,10.47
2022-12-25T13:42:47.223Z,10.45
2022-12-25T13:52:49.142Z,10.44
2022-12-25T14:02:51.510Z,10.41
2022-12-25T14:12:56.176Z,10.45
2022-12-25T14:23:00.653Z,10.44
2022-12-25T14:33:02.627Z,10.48
2022-12-25T14:43:18.595Z,10.49
2022-12-25T14:53:23.061Z,10.52
2022-12-25T15:03:29.461Z,10.55
2022-12-25T15:13:31.970Z,10.56
2022-12-25T15:23:33.485Z,10.57
2022-12-25T15:33:38.006Z,10.58
2022-12-25T15:43:43.624Z,10.55
2022-12-25T15:53:44.994Z,10.59
2022-12-25T16:03:46.756Z,10.53
2022-12-25T16:13:48.160Z,10.67
2022-12-25T16:23:49.799Z,10.61
2022-12-25T16:33:52.842Z,10.60
2022-12-25T16:43:54.503Z,10.71
2022-12-25T16:53:55.928Z,10.59
2022-12-25T17:04:01.372Z,10.60
2022-12-25T17:14:05.168Z,10.54
2022-12-25T17:24:07.038Z,10.59
2022-12-25T17:34:10.650Z,10.59
2022-12-25T17:44:12.088Z,10.56
2022-12-25T17:54:13.744Z,10.57
2022-12-25T18:04:15.148Z,10.59
2022-12-25T18:14:16.998Z,10.62
2022-12-25T18:24:18.352Z,10.59
2022-12-25T18:34:19.756Z,10.70
2022-12-25T18:44:21.195Z,10.78
2022-12-25T18:54:22.549Z,10.65
2022-12-25T19:04:24.036Z,10.68
2022-12-25T19:14:28.129Z,10.72
2022-12-25T19:24:29.459Z,10.76
2022-12-25T19:34:30.823Z,10.79
2022-12-25T19:44:32.182Z,10.76
2022-12-25T19:54:33.746Z,10.83
2022-12-25T20:04:35.105Z,10.83
2022-12-25T20:14:36.656Z,10.80
2022-12-25T20:24:38.064Z,10.84
2022-12-25T20:34:39.438Z,10.86
2022-12-25T20:44:40.804Z,10.84
2022-12-25T20:54:42.362Z,10.91
2022-12-25T21:04:45.723Z,10.87
2022-12-25T21:14:50.591Z,10.94
2022-12-25T21:24:53.214Z,10.98
2022-12-25T21:34:54.576Z,10.97
2022-12-25T21:44:55.995Z,11.00
2022-12-25T21:54:57.407Z,11.04
2022-12-25T22:04:58.845Z,11.11
2022-12-25T22:15:06.183Z,11.08
2022-12-25T22:25:09.062Z,11.09
2022-12-25T22:35:12.466Z,11.10
2022-12-25T22:45:14.199Z,11.15
2022-12-25T22:55:17.705Z,11.09
2022-12-25T23:05:19.076Z,11.11
2022-12-25T23:15:20.505Z,11.12
2022-12-25T23:25:40.377Z,11.12
2022-12-25T23:35:41.735Z,11.13
2022-12-25T23:45:43.140Z,11.14
2022-12-25T23:55:46.568Z,11.15
